createdAt,value
2022-11-28T00:01:19.440Z,4.75
2022-11-28T00:03:46.843Z,1.75
2022-11-28T00:06:14.342Z,4.75
2022-11-28T00:08:42.145Z,5.00
2022-11-28T00:11:10.396Z,5.50
2022-11-28T00:13:37.846Z,7.00
2022-11-28T00:16:07.955Z,5.75
2022-11-28T00:18:36.707Z,6.00
2022-11-28T00:21:04.764Z,6.00
2022-11-28T00:23:33.087Z,7.50
2022-11-28T00:26:00.594Z,7.25
2022-11-28T00:28:28.042Z,8.25
2022-11-28T00:30:55.480Z,6.00
2022-11-28T00:33:22.900Z,8.50
2022-11-28T00:35:51.611Z,7.50
2022-11-28T00:38:19.017Z,7.00
2022-11-28T00:40:46.431Z,9.00
2022-11-28T00:43:13.865Z,7.50
2022-11-28T00:45:41.289Z,8.25
2022-11-28T00:48:08.736Z,8.00
2022-11-28T00:50:36.170Z,8.00
2022-11-28T00:53:04.882Z,10.00
2022-11-28T00:55:32.288Z,9.50
2022-11-28T00:57:59.690Z,7.00
2022-11-28T01:00:27.099Z,10.00
2022-11-28T01:02:54.528Z,7.00
2022-11-28T01:05:21.981Z,9.00
2022-11-28T01:07:49.471Z,6.25
2022-11-28T01:10:18.364Z,8.25
2022-11-28T01:12:45.802Z,9.25
2022-11-28T01:15:13.449Z,7.50
2022-11-28T01:17:41.104Z,10.75
2022-11-28T01:20:09.655Z,9.50
2022-11-28T01:22:37.063Z,9.25
2022-11-28T01:25:04.790Z,7.75
2022-11-28T01:27:33.499Z,11.75
2022-11-28T01:30:01.037Z,8.00
2022-11-28T01:32:28.493Z,7.25
2022-11-28T01:34:55.908Z,8.00
2022-11-28T01:37:23.328Z,9.00
2022-11-28T01:39:50.764Z,9.00
2022-11-28T01:42:18.622Z,8.75
2022-11-28T01:45:13.091Z,9.00
2022-11-28T01:47:40.495Z,8.50
2022-11-28T01:50:08.811Z,10.00
2022-11-28T01:52:37.317Z,9.50
2022-11-28T01:55:05.102Z,10.00
2022-11-28T01:57:32.506Z,10.00
2022-11-28T02:00:02.849Z,11.00
2022-11-28T02:02:42.014Z,10.00
2022-11-28T02:05:09.716Z,10.75
2022-11-28T02:07:37.178Z,9.75
2022-11-28T02:10:06.212Z,9.25
2022-11-28T02:12:39.165Z,11.25
2022-11-28T02:15:14.004Z,11.00
2022-11-28T02:17:48.632Z,10.50
2022-11-28T02:20:51.756Z,10.00
2022-11-28T02:23:19.809Z,7.75
2022-11-28T02:26:09.527Z,9.00
2022-11-28T02:28:47.146Z,9.75
2022-11-28T02:31:23.172Z,8.25
2022-11-28T02:33:52.561Z,8.50
2022-11-28T02:36:20.718Z,6.75
2022-11-28T02:38:57.502Z,11.00
2022-11-28T02:41:31.288Z,9.00
2022-11-28T02:44:04.372Z,10.00
2022-11-28T02:46:34.843Z,8.75
2022-11-28T02:49:05.326Z,10.00
2022-11-28T02:51:34.310Z,8.00
2022-11-28T02:54:01.904Z,9.00
2022-11-28T02:56:29.352Z,8.00
2022-11-28T02:58:56.764Z,9.00
2022-11-28T03:01:26.671Z,9.50
2022-11-28T03:04:10.546Z,8.25
2022-11-28T03:06:44.252Z,9.00
2022-11-28T03:09:40.516Z,7.00
2022-11-28T03:12:15.720Z,9.00
2022-11-28T03:14:50.164Z,8.75
2022-11-28T03:17:20.835Z,8.75
2022-11-28T03:19:51.856Z,9.00
2022-11-28T03:22:23.650Z,9.00
2022-11-28T03:24:52.460Z,8.75
2022-11-28T03:27:22.177Z,8.75
2022-11-28T03:29:50.442Z,8.25
2022-11-28T03:32:20.338Z,7.50
2022-11-28T03:34:50.790Z,6.75
2022-11-28T03:37:20.034Z,8.00
2022-11-28T03:39:49.859Z,7.75
2022-11-28T03:42:18.072Z,8.00
2022-11-28T03:44:47.395Z,7.25
2022-11-28T03:47:14.794Z,8.00
2022-11-28T03:49:43.386Z,8.00
2022-11-28T03:52:14.681Z,9.50
2022-11-28T03:54:44.830Z,7.50
2022-11-28T03:57:13.673Z,9.00
2022-11-28T03:59:42.501Z,6.00
2022-11-28T04:02:14.955Z,8.00
2022-11-28T04:04:44.792Z,8.00
2022-11-28T04:07:16.208Z,7.25
2022-11-28T04:09:46.100Z,7.00
2022-11-28T04:12:18.252Z,8.00
2022-11-28T04:14:47.023Z,7.75
2022-11-28T04:17:16.868Z,4.50
2022-11-28T04:19:45.727Z,7.50
2022-11-28T04:22:16.300Z,8.00
2022-11-28T04:24:45.538Z,7.25
2022-11-28T04:27:14.899Z,7.50
2022-11-28T04:29:43.886Z,6.75
2022-11-28T04:32:11.313Z,8.25
2022-11-28T04:34:38.721Z,8.00
2022-11-28T04:37:09.793Z,8.00
2022-11-28T04:39:38.768Z,6.00
2022-11-28T04:42:07.350Z,8.00
2022-11-28T04:44:37.719Z,9.00
2022-11-28T04:47:05.300Z,6.25
2022-11-28T04:49:32.714Z,7.25
2022-11-28T04:52:02.142Z,7.25
2022-11-28T04:54:32.302Z,8.00
2022-11-28T04:57:02.404Z,6.25
2022-11-28T04:59:29.801Z,7.25
2022-11-28T05:01:58.293Z,8.00
2022-11-28T05:04:25.803Z,8.25
2022-11-28T05:07:01.949Z,8.00
2022-11-28T05:09:29.351Z,7.75
2022-11-28T05:11:56.749Z,5.50
2022-11-28T05:14:25.503Z,7.25
2022-11-28T05:16:53.041Z,8.00
2022-11-28T05:19:20.533Z,8.00
2022-11-28T05:21:47.949Z,7.00
2022-11-28T05:24:15.363Z,7.00
2022-11-28T05:26:43.261Z,5.25
2022-11-28T05:29:10.705Z,8.75
2022-11-28T05:31:39.541Z,6.00
2022-11-28T05:34:06.971Z,6.75
2022-11-28T05:36:34.378Z,9.75
2022-11-28T05:39:01.796Z,7.25
2022-11-28T05:41:29.948Z,7.00
2022-11-28T05:43:57.454Z,6.00
2022-11-28T05:46:25.028Z,6.75
2022-11-28T05:48:53.972Z,7.00
2022-11-28T05:51:21.387Z,7.00
2022-11-28T05:53:48.795Z,6.00
2022-11-28T05:56:17.214Z,6.00
2022-11-28T05:58:44.609Z,6.00
2022-11-28T06:01:13.086Z,7.00
2022-11-28T06:03:40.527Z,8.75
2022-11-28T06:06:12.508Z,6.00
2022-11-28T06:08:39.927Z,8.00
2022-11-28T06:11:07.537Z,7.00
2022-11-28T06:13:34.941Z,7.75
2022-11-28T06:16:03.543Z,6.25
2022-11-28T06:18:30.997Z,6.00
2022-11-28T06:21:01.884Z,7.00
2022-11-28T06:23:30.614Z,7.25
2022-11-28T06:25:58.096Z,7.00
2022-11-28T06:28:25.500Z,7.00
2022-11-28T06:30:52.909Z,6.00
2022-11-28T06:33:20.348Z,7.00
2022-11-28T06:35:47.821Z,6.00
2022-11-28T06:38:15.216Z,7.00
2022-11-28T06:40:43.914Z,6.00
2022-11-28T06:43:11.332Z,7.25
2022-11-28T06:45:38.757Z,6.25
2022-11-28T06:48:06.653Z,6.25
2022-11-28T06:50:34.072Z,6.00
2022-11-28T06:53:01.473Z,7.00
2022-11-28T06:55:30.259Z,7.00
2022-11-28T06:57:58.945Z,7.00
2022-11-28T07:00:26.449Z,6.50
2022-11-28T07:02:53.884Z,6.25
2022-11-28T07:05:22.841Z,6.75
2022-11-28T07:07:54.536Z,7.75
2022-11-28T07:10:22.227Z,6.00
2022-11-28T07:12:54.200Z,7.00
2022-11-28T07:15:23.097Z,8.00
2022-11-28T07:17:50.522Z,6.00
2022-11-28T07:20:18.111Z,6.00
2022-11-28T07:22:46.845Z,7.00
2022-11-28T07:25:16.528Z,7.00
2022-11-28T07:27:44.012Z,7.25
2022-11-28T07:30:11.785Z,6.00
2022-11-28T07:32:41.397Z,7.25
2022-11-28T07:35:09.282Z,6.00
2022-11-28T07:37:36.691Z,7.25
2022-11-28T07:40:04.237Z,6.75
2022-11-28T07:42:31.901Z,7.00
2022-11-28T07:45:04.544Z,7.00
2022-11-28T07:47:31.976Z,5.50
2022-11-28T07:50:00.742Z,5.25
2022-11-28T07:52:28.156Z,6.25
2022-11-28T07:54:55.580Z,6.50
2022-11-28T07:57:23.005Z,6.00
2022-11-28T07:59:50.432Z,7.00
2022-11-28T08:02:18.731Z,6.00
2022-11-28T08:04:50.631Z,7.00
2022-11-28T08:07:21.522Z,5.50
2022-11-28T08:09:49.024Z,6.00
2022-11-28T08:12:16.454Z,7.75
2022-11-28T08:14:44.445Z,7.00
2022-11-28T08:17:12.235Z,7.00
2022-11-28T08:19:39.685Z,6.25
2022-11-28T08:22:07.098Z,8.00
2022-11-28T08:24:35.846Z,6.00
2022-11-28T08:27:03.260Z,7.00
2022-11-28T08:29:30.814Z,6.00
2022-11-28T08:31:58.223Z,7.00
2022-11-28T08:34:25.635Z,7.00
2022-11-28T08:36:53.050Z,7.75
2022-11-28T08:39:24.900Z,7.00
2022-11-28T08:41:54.191Z,6.25
2022-11-28T08:44:21.642Z,6.00
2022-11-28T08:46:49.062Z,8.00
2022-11-28T08:49:16.760Z,7.00
2022-11-28T08:51:44.180Z,7.00
2022-11-28T08:54:11.583Z,7.75
2022-11-28T08:56:38.986Z,6.75
2022-11-28T08:59:07.834Z,8.25
2022-11-28T09:01:35.309Z,7.00
2022-11-28T09:04:05.096Z,6.50
2022-11-28T09:06:32.532Z,7.00
2022-11-28T09:08:59.948Z,7.00
2022-11-28T09:11:27.374Z,7.75
2022-11-28T09:13:55.648Z,7.25
2022-11-28T09:16:24.407Z,6.25
2022-11-28T09:18:52.345Z,6.75
2022-11-28T09:21:19.828Z,7.25
2022-11-28T09:23:47.424Z,6.25
2022-11-28T09:26:15.893Z,5.00
2022-11-28T09:28:43.349Z,8.00
2022-11-28T09:31:11.251Z,7.00
2022-11-28T09:33:40.052Z,7.00
2022-11-28T09:36:08.353Z,7.00
2022-11-28T09:38:35.799Z,8.75
2022-11-28T09:41:03.394Z,5.75
2022-11-28T09:43:32.039Z,6.50
2022-11-28T09:45:59.835Z,7.25
2022-11-28T09:48:30.144Z,6.75
2022-11-28T09:51:04.696Z,7.00
2022-11-28T09:53:36.061Z,6.00
2022-11-28T09:56:06.214Z,7.00
2022-11-28T09:58:36.565Z,5.75
2022-11-28T10:01:11.309Z,6.75
2022-11-28T10:03:41.553Z,7.00
2022-11-28T10:06:16.021Z,7.00
2022-11-28T10:08:57.593Z,7.00
2022-11-28T10:11:31.686Z,6.25
2022-11-28T10:14:09.204Z,8.75
2022-11-28T10:16:43.161Z,7.25
2022-11-28T10:19:20.641Z,8.50
2022-11-28T10:22:01.365Z,9.00
2022-11-28T10:24:31.814Z,8.00
2022-11-28T10:26:59.990Z,8.00
2022-11-28T10:29:29.804Z,10.00
2022-11-28T10:31:59.178Z,9.75
2022-11-28T10:34:29.286Z,9.00
2022-11-28T10:36:58.701Z,9.00
2022-11-28T10:39:27.417Z,7.75
2022-11-28T10:42:21.000Z,5.25
2022-11-28T10:45:08.315Z,10.75
2022-11-28T10:47:44.808Z,9.00
2022-11-28T10:50:15.122Z,11.25
2022-11-28T10:52:44.936Z,10.00
2022-11-28T10:55:23.441Z,13.00
2022-11-28T10:57:55.499Z,11.00
2022-11-28T11:00:22.909Z,12.50
2022-11-28T11:02:50.854Z,10.00
2022-11-28T11:05:19.320Z,12.00
2022-11-28T11:07:49.111Z,11.25
2022-11-28T11:10:17.635Z,12.00
2022-11-28T11:12:46.623Z,12.00
2022-11-28T11:15:22.520Z,12.25
2022-11-28T11:17:50.781Z,12.75
2022-11-28T11:20:35.625Z,12.25
2022-11-28T11:23:06.240Z,12.00
2022-11-28T11:25:33.651Z,12.00
2022-11-28T11:28:03.221Z,12.00
2022-11-28T11:30:31.482Z,10.75
2022-11-28T11:33:00.129Z,9.00
2022-11-28T11:35:28.330Z,12.75
2022-11-28T11:37:56.217Z,11.50
2022-11-28T11:40:26.414Z,12.00
2022-11-28T11:42:55.194Z,12.00
2022-11-28T11:45:30.053Z,11.00
2022-11-28T11:47:57.536Z,11.50
2022-11-28T11:50:25.927Z,11.25
2022-11-28T11:53:03.875Z,12.00
2022-11-28T11:55:32.652Z,11.00
2022-11-28T11:58:05.444Z,11.25
2022-11-28T12:00:38.730Z,13.75
2022-11-28T12:03:10.994Z,12.50
2022-11-28T12:06:12.251Z,11.75
2022-11-28T12:08:35.342Z,11.25
2022-11-28T12:11:10.189Z,12.00
2022-11-28T12:13:37.613Z,13.25
2022-11-28T12:16:09.535Z,11.25
2022-11-28T12:18:46.028Z,13.00
2022-11-28T12:21:14.435Z,11.25
2022-11-28T12:23:49.384Z,10.00
2022-11-28T12:26:19.938Z,12.00
2022-11-28T12:28:54.060Z,10.50
2022-11-28T12:31:25.143Z,12.00
2022-11-28T12:33:58.223Z,11.00
2022-11-28T12:36:28.016Z,12.00
2022-11-28T12:39:13.969Z,11.00
2022-11-28T12:41:51.908Z,11.00
2022-11-28T12:44:22.819Z,11.25
2022-11-28T12:46:55.385Z,11.50
2022-11-28T12:49:24.827Z,10.75
2022-11-28T12:51:58.349Z,4.00
2022-11-28T12:54:45.669Z,12.00
2022-11-28T12:57:16.276Z,9.75
2022-11-28T12:59:46.634Z,10.75
2022-11-28T13:02:26.590Z,11.25
2022-11-28T13:05:05.991Z,11.75
2022-11-28T13:07:38.123Z,10.00
2022-11-28T13:10:09.878Z,12.25
2022-11-28T13:12:45.681Z,10.50
2022-11-28T13:15:14.792Z,11.00
2022-11-28T13:17:45.320Z,11.25
2022-11-28T13:20:18.387Z,10.25
2022-11-28T13:22:53.095Z,11.25
2022-11-28T13:25:22.879Z,8.25
2022-11-28T13:27:53.933Z,8.00
2022-11-28T13:30:22.921Z,11.50
2022-11-28T13:32:53.546Z,10.00
2022-11-28T13:35:20.966Z,12.25
2022-11-28T13:40:41.177Z,9.00
2022-11-28T13:43:13.481Z,10.00
2022-11-28T13:45:42.190Z,10.00
2022-11-28T13:51:36.869Z,10.00
2022-11-28T13:54:34.151Z,11.00
2022-11-28T13:57:06.281Z,9.00
2022-11-28T13:59:34.776Z,9.25
2022-11-28T14:02:02.836Z,7.25
2022-11-28T14:04:30.893Z,10.25
2022-11-28T14:07:02.790Z,9.00
2022-11-28T14:09:34.805Z,9.00
2022-11-28T14:12:07.987Z,9.75
2022-11-28T14:14:47.402Z,8.50
2022-11-28T14:17:23.952Z,6.00
2022-11-28T14:20:01.833Z,11.00
2022-11-28T14:22:40.009Z,11.50
2022-11-28T14:25:10.470Z,9.50
2022-11-28T14:27:40.613Z,10.75
2022-11-28T14:30:18.363Z,11.25
2022-11-28T14:32:45.876Z,11.50
2022-11-28T14:35:16.575Z,11.00
2022-11-28T14:37:55.468Z,8.00
2022-11-28T14:41:06.087Z,8.00
2022-11-28T14:43:35.379Z,11.00
2022-11-28T14:46:29.289Z,10.50
2022-11-28T14:49:18.733Z,9.00
2022-11-28T14:55:21.962Z,8.00
2022-11-28T14:57:55.117Z,9.00
2022-11-28T15:00:24.460Z,9.50
2022-11-28T15:02:58.485Z,11.50
2022-11-28T15:05:31.531Z,9.00
2022-11-28T15:08:13.055Z,9.00
2022-11-28T15:10:44.292Z,11.75
2022-11-28T15:13:22.023Z,10.00
2022-11-28T15:15:51.886Z,10.00
2022-11-28T15:18:19.382Z,9.00
2022-11-28T15:20:48.833Z,10.50
2022-11-28T15:23:26.010Z,1.00
2022-11-28T15:25:55.888Z,11.00
2022-11-28T15:28:23.820Z,10.50
2022-11-28T15:30:52.232Z,8.50
2022-11-28T15:33:20.132Z,11.00
2022-11-28T15:35:56.905Z,9.75
2022-11-28T15:38:24.628Z,9.75
2022-11-28T15:40:52.614Z,7.00
2022-11-28T15:43:21.439Z,11.25
2022-11-28T15:45:49.582Z,9.75
2022-11-28T15:48:27.753Z,7.75
2022-11-28T15:50:55.198Z,9.50
2022-11-28T15:53:22.737Z,9.25
2022-11-28T15:56:08.061Z,8.50
2022-11-28T15:58:36.994Z,9.25
2022-11-28T16:01:06.605Z,9.25
2022-11-28T16:03:36.079Z,10.00
2022-11-28T16:06:03.977Z,12.50
2022-11-28T16:08:34.789Z,10.00
2022-11-28T16:11:03.973Z,11.00
2022-11-28T16:13:32.130Z,11.00
2022-11-28T16:16:01.408Z,9.00
2022-11-28T16:18:29.115Z,9.00
2022-11-28T16:20:56.585Z,10.50
2022-11-28T16:23:28.263Z,10.75
2022-11-28T16:26:03.172Z,10.50
2022-11-28T16:28:32.050Z,9.75
2022-11-28T16:31:00.786Z,9.75
2022-11-28T16:33:38.498Z,9.00
2022-11-28T16:36:10.339Z,7.25
2022-11-28T16:38:37.768Z,10.25
2022-11-28T16:41:05.184Z,2.00
2022-11-28T16:43:35.641Z,9.00
2022-11-28T16:46:06.295Z,9.50
2022-11-28T16:48:35.000Z,10.00
2022-11-28T16:51:28.130Z,10.00
2022-11-28T16:53:55.758Z,10.00
2022-11-28T16:56:24.807Z,11.00
2022-11-28T16:58:52.747Z,9.75
2022-11-28T17:01:22.064Z,11.00
2022-11-28T17:03:50.679Z,10.50
2022-11-28T17:06:20.503Z,8.75
2022-11-28T17:08:47.971Z,10.75
2022-11-28T17:11:15.644Z,10.50
2022-11-28T17:13:43.070Z,9.00
2022-11-28T17:16:15.616Z,9.75
2022-11-28T17:18:44.697Z,8.25
2022-11-28T17:21:12.532Z,8.50
2022-11-28T17:23:40.781Z,9.00
2022-11-28T17:26:08.222Z,9.00
2022-11-28T17:28:35.628Z,9.00
2022-11-28T17:31:03.045Z,10.25
2022-11-28T17:33:30.453Z,11.25
2022-11-28T17:35:59.390Z,10.75
2022-11-28T17:38:26.836Z,11.75
2022-11-28T17:40:54.492Z,11.25
2022-11-28T17:43:22.858Z,11.75
2022-11-28T17:45:51.545Z,12.25
2022-11-28T17:48:19.579Z,12.00
2022-11-28T17:50:47.686Z,12.25
2022-11-28T17:53:18.085Z,9.25
2022-11-28T17:55:47.072Z,9.25
2022-11-28T17:58:16.805Z,12.00
2022-11-28T18:00:44.625Z,11.00
2022-11-28T18:03:12.111Z,14.00
2022-11-28T18:05:39.791Z,12.25
2022-11-28T18:08:07.389Z,14.00
2022-11-28T18:10:37.422Z,13.50
2022-11-28T18:13:05.051Z,13.00
2022-11-28T18:15:34.818Z,13.75
2022-11-28T18:18:02.237Z,12.25
2022-11-28T18:20:29.732Z,13.75
2022-11-28T18:22:57.358Z,12.50
2022-11-28T18:25:24.882Z,13.25
2022-11-28T18:27:53.788Z,15.25
2022-11-28T18:30:21.605Z,14.00
2022-11-28T18:32:49.021Z,13.25
2022-11-28T18:35:16.900Z,14.00
2022-11-28T18:37:44.547Z,15.50
2022-11-28T18:40:13.084Z,15.75
2022-11-28T18:42:41.840Z,10.25
2022-11-28T18:45:11.812Z,13.00
2022-11-28T18:47:39.280Z,13.75
2022-11-28T18:50:09.040Z,14.00
2022-11-28T18:52:36.711Z,13.25
2022-11-28T18:55:04.781Z,13.50
2022-11-28T18:57:34.469Z,14.25
2022-11-28T19:00:02.213Z,13.75
2022-11-28T19:02:31.188Z,13.00
2022-11-28T19:04:58.739Z,14.00
2022-11-28T19:07:27.029Z,13.25
2022-11-28T19:09:54.522Z,13.50
2022-11-28T19:12:22.412Z,11.00
2022-11-28T19:14:49.822Z,11.00
2022-11-28T19:17:18.790Z,11.00
2022-11-28T19:19:48.033Z,12.50
2022-11-28T19:22:15.450Z,14.00
2022-11-28T19:24:42.887Z,12.00
2022-11-28T19:27:14.255Z,13.25
2022-11-28T19:29:43.778Z,14.00
2022-11-28T19:32:12.513Z,14.00
2022-11-28T19:34:39.922Z,11.00
2022-11-28T19:37:08.646Z,12.00
2022-11-28T19:39:36.546Z,14.00
2022-11-28T19:42:04.044Z,13.00
2022-11-28T19:44:31.852Z,14.00
2022-11-28T19:46:59.260Z,16.25
2022-11-28T19:49:29.180Z,13.00
2022-11-28T19:51:56.614Z,16.25
2022-11-28T19:54:25.438Z,14.00
2022-11-28T19:56:55.230Z,11.25
2022-11-28T19:59:22.667Z,16.00
2022-11-28T20:01:50.260Z,14.00
2022-11-28T20:04:17.912Z,13.00
2022-11-28T20:06:45.332Z,13.50
2022-11-28T20:09:12.979Z,15.00
2022-11-28T20:11:44.105Z,14.25
2022-11-28T20:14:12.917Z,14.25
2022-11-28T20:16:41.496Z,15.00
2022-11-28T20:19:10.563Z,14.00
2022-11-28T20:21:38.123Z,15.75
2022-11-28T20:24:07.460Z,13.25
2022-11-28T20:26:37.638Z,13.00
2022-11-28T20:29:06.356Z,13.25
2022-11-28T20:31:35.874Z,11.75
2022-11-28T20:34:04.588Z,12.75
2022-11-28T20:36:32.392Z,13.25
2022-11-28T20:38:59.829Z,13.25
2022-11-28T20:41:27.743Z,12.75
2022-11-28T20:43:55.156Z,13.75
2022-11-28T20:46:25.124Z,15.50
2022-11-28T20:48:52.529Z,13.50
2022-11-28T20:51:20.922Z,13.50
2022-11-28T20:53:48.596Z,12.00
2022-11-28T20:56:16.666Z,12.50
2022-11-28T20:58:44.102Z,14.00
2022-11-28T21:01:14.260Z,15.00
2022-11-28T21:03:42.990Z,12.75
2022-11-28T21:06:10.493Z,14.25
2022-11-28T21:08:37.930Z,13.25
2022-11-28T21:11:06.464Z,18.00
2022-11-28T21:13:33.922Z,16.25
2022-11-28T21:16:05.208Z,12.00
2022-11-28T21:18:32.777Z,17.50
2022-11-28T21:21:07.425Z,17.00
2022-11-28T21:23:34.849Z,14.50
2022-11-28T21:26:04.817Z,18.50
2022-11-28T21:28:32.229Z,16.50
2022-11-28T21:30:59.630Z,16.50
2022-11-28T21:33:27.098Z,15.50
2022-11-28T21:35:54.531Z,17.25
2022-11-28T21:38:23.234Z,18.25
2022-11-28T21:40:54.123Z,17.25
2022-11-28T21:43:21.564Z,17.00
2022-11-28T21:45:49.105Z,17.00
2022-11-28T21:48:17.056Z,17.50
2022-11-28T21:50:47.405Z,16.25
2022-11-28T21:53:16.793Z,15.00
2022-11-28T21:55:45.780Z,14.75
2022-11-28T21:58:13.888Z,16.25
2022-11-28T22:00:55.034Z,15.75
2022-11-28T22:03:25.165Z,14.00
2022-11-28T22:05:53.457Z,17.00
2022-11-28T22:08:21.844Z,16.50
2022-11-28T22:10:50.559Z,16.00
2022-11-28T22:13:18.115Z,15.00
2022-11-28T22:15:45.647Z,18.25
2022-11-28T22:18:13.207Z,17.00
2022-11-28T22:20:43.591Z,16.75
2022-11-28T22:23:12.645Z,16.75
2022-11-28T22:25:41.851Z,14.75
2022-11-28T22:28:10.658Z,18.25
2022-11-28T22:30:38.810Z,16.50
2022-11-28T22:33:06.432Z,17.00
2022-11-28T22:35:35.477Z,14.00
2022-11-28T22:38:03.774Z,16.00
2022-11-28T22:40:31.245Z,18.50
2022-11-28T22:42:59.772Z,16.50
2022-11-28T22:45:28.642Z,17.00
2022-11-28T22:47:56.249Z,18.50
2022-11-28T22:50:23.756Z,17.00
2022-11-28T22:52:51.208Z,14.50
2022-11-28T22:55:18.680Z,16.00
2022-11-28T22:57:46.266Z,14.75
2022-11-28T23:00:15.410Z,16.25
2022-11-28T23:02:44.637Z,13.50
2022-11-28T23:05:12.198Z,16.25
2022-11-28T23:07:39.656Z,17.50
2022-11-28T23:10:08.763Z,17.50
2022-11-28T23:12:36.211Z,14.75
2022-11-28T23:15:03.685Z,15.25
2022-11-28T23:17:31.234Z,14.00
2022-11-28T23:19:59.957Z,16.00
2022-11-28T23:22:27.444Z,17.75
2022-11-28T23:24:55.208Z,16.75
2022-11-28T23:27:22.957Z,14.75
2022-11-28T23:29:51.357Z,17.75
2022-11-28T23:32:18.805Z,16.00
2022-11-28T23:34:47.587Z,15.00
2022-11-28T23:37:16.283Z,15.50
2022-11-28T23:39:43.723Z,14.75
2022-11-28T23:42:11.167Z,15.00
2022-11-28T23:44:38.576Z,16.75
2022-11-28T23:47:06.525Z,15.25
2022-11-28T23:49:33.936Z,13.00
2022-11-28T23:52:01.332Z,3.00
2022-11-28T23:54:30.036Z,15.50
2022-11-28T23:56:57.449Z,14.50
2022-11-28T23:59:24.842Z,18.00
